sensor_id;sensor_type;location;lat;lon;timestamp;temperature;humidity
7942;HTU21D;4016;50.758;7.150;2022-08-19T00:01:35;18.27;110.05
7942;HTU21D;4016;50.758;7.150;2022-08-19T00:06:37;18.22;110.86
7942;HTU21D;4016;50.758;7.150;2022-08-19T00:11:38;18.14;111.14
7942;HTU21D;4016;50.758;7.150;2022-08-19T00:16:39;18.04;110.85
7942;HTU21D;4016;50.758;7.150;2022-08-19T00:21:41;17.99;109.33
7942;HTU21D;4016;50.758;7.150;2022-08-19T00:26:42;17.97;110.71
7942;HTU21D;4016;50.758;7.150;2022-08-19T00:31:43;17.89;111.61
7942;HTU21D;4016;50.758;7.150;2022-08-19T00:36:45;17.82;111.18
7942;HTU21D;4016;50.758;7.150;2022-08-19T00:41:46;17.76;112.29
7942;HTU21D;4016;50.758;7.150;2022-08-19T00:46:51;17.72;112.92
7942;HTU21D;4016;50.758;7.150;2022-08-19T00:51:57;17.64;112.78
7942;HTU21D;4016;50.758;7.150;2022-08-19T00:56:59;17.58;113.13
7942;HTU21D;4016;50.758;7.150;2022-08-19T01:02:00;17.52;113.43
7942;HTU21D;4016;50.758;7.150;2022-08-19T01:07:01;17.46;113.03
7942;HTU21D;4016;50.758;7.150;2022-08-19T01:12:02;17.40;113.52
7942;HTU21D;4016;50.758;7.150;2022-08-19T01:17:02;17.34;113.63
7942;HTU21D;4016;50.758;7.150;2022-08-19T01:22:10;17.31;113.39
7942;HTU21D;4016;50.758;7.150;2022-08-19T01:27:13;17.25;113.92
7942;HTU21D;4016;50.758;7.150;2022-08-19T01:32:16;17.22;114.51
7942;HTU21D;4016;50.758;7.150;2022-08-19T01:37:17;17.19;113.97
7942;HTU21D;4016;50.758;7.150;2022-08-19T01:42:17;17.16;114.17
7942;HTU21D;4016;50.758;7.150;2022-08-19T01:47:17;17.13;114.13
7942;HTU21D;4016;50.758;7.150;2022-08-19T01:52:19;17.09;113.93
7942;HTU21D;4016;50.758;7.150;2022-08-19T01:57:19;17.08;115.02
7942;HTU21D;4016;50.758;7.150;2022-08-19T02:02:20;17.05;115.17
7942;HTU21D;4016;50.758;7.150;2022-08-19T02:07:20;17.03;115.28
7942;HTU21D;4016;50.758;7.150;2022-08-19T02:12:24;17.03;115.79
7942;HTU21D;4016;50.758;7.150;2022-08-19T02:17:24;17.01;115.69
7942;HTU21D;4016;50.758;7.150;2022-08-19T02:22:24;16.94;115.25
7942;HTU21D;4016;50.758;7.150;2022-08-19T02:27:28;16.95;114.88
7942;HTU21D;4016;50.758;7.150;2022-08-19T02:32:28;16.96;114.81
7942;HTU21D;4016;50.758;7.150;2022-08-19T02:37:30;16.91;115.60
7942;HTU21D;4016;50.758;7.150;2022-08-19T02:42:49;16.87;116.14
7942;HTU21D;4016;50.758;7.150;2022-08-19T02:47:50;16.85;116.22
7942;HTU21D;4016;50.758;7.150;2022-08-19T02:52:51;16.84;116.46
7942;HTU21D;4016;50.758;7.150;2022-08-19T02:57:51;16.82;116.73
7942;HTU21D;4016;50.758;7.150;2022-08-19T03:02:52;16.78;116.54
7942;HTU21D;4016;50.758;7.150;2022-08-19T03:07:53;16.76;116.47
7942;HTU21D;4016;50.758;7.150;2022-08-19T03:12:53;16.71;116.21
7942;HTU21D;4016;50.758;7.150;2022-08-19T03:17:53;16.73;116.57
7942;HTU21D;4016;50.758;7.150;2022-08-19T03:22:54;16.72;117.28
7942;HTU21D;4016;50.758;7.150;2022-08-19T03:27:54;16.65;117.10
7942;HTU21D;4016;50.758;7.150;2022-08-19T03:32:55;16.64;116.82
7942;HTU21D;4016;50.758;7.150;2022-08-19T03:37:55;16.60;116.91
7942;HTU21D;4016;50.758;7.150;2022-08-19T03:42:56;16.60;117.10
7942;HTU21D;4016;50.758;7.150;2022-08-19T03:47:57;16.58;117.15
7942;HTU21D;4016;50.758;7.150;2022-08-19T03:52:57;16.55;117.37
7942;HTU21D;4016;50.758;7.150;2022-08-19T03:57:57;16.49;117.83
7942;HTU21D;4016;50.758;7.150;2022-08-19T04:02:59;16.45;117.50
7942;HTU21D;4016;50.758;7.150;2022-08-19T04:07:59;16.44;117.44
7942;HTU21D;4016;50.758;7.150;2022-08-19T04:13:00;16.44;117.73
7942;HTU21D;4016;50.758;7.150;2022-08-19T04:18:01;16.44;117.88
7942;HTU21D;4016;50.758;7.150;2022-08-19T04:23:02;16.41;118.17
7942;HTU21D;4016;50.758;7.150;2022-08-19T04:28:03;16.44;118.79
7942;HTU21D;4016;50.758;7.150;2022-08-19T04:33:03;16.35;118.99
7942;HTU21D;4016;50.758;7.150;2022-08-19T04:38:04;16.31;118.99
7942;HTU21D;4016;50.758;7.150;2022-08-19T04:43:05;16.32;118.99
7942;HTU21D;4016;50.758;7.150;2022-08-19T04:48:05;16.37;118.99
7942;HTU21D;4016;50.758;7.150;2022-08-19T04:53:05;16.37;118.99
7942;HTU21D;4016;50.758;7.150;2022-08-19T04:58:06;16.37;118.99
7942;HTU21D;4016;50.758;7.150;2022-08-19T05:03:07;16.40;118.99
7942;HTU21D;4016;50.758;7.150;2022-08-19T05:08:08;16.44;118.99
7942;HTU21D;4016;50.758;7.150;2022-08-19T05:13:08;16.49;118.99
7942;HTU21D;4016;50.758;7.150;2022-08-19T05:18:10;16.52;118.99
7942;HTU21D;4016;50.758;7.150;2022-08-19T05:23:29;16.60;118.99
7942;HTU21D;4016;50.758;7.150;2022-08-19T05:28:30;16.63;118.99
7942;HTU21D;4016;50.758;7.150;2022-08-19T05:33:30;16.70;118.99
7942;HTU21D;4016;50.758;7.150;2022-08-19T05:38:31;16.79;118.99
7942;HTU21D;4016;50.758;7.150;2022-08-19T05:43:31;16.92;118.99
7942;HTU21D;4016;50.758;7.150;2022-08-19T05:48:33;17.25;118.99
7942;HTU21D;4016;50.758;7.150;2022-08-19T05:53:35;17.29;118.99
7942;HTU21D;4016;50.758;7.150;2022-08-19T05:58:36;17.47;118.99
7942;HTU21D;4016;50.758;7.150;2022-08-19T06:03:37;17.67;118.99
7942;HTU21D;4016;50.758;7.150;2022-08-19T06:08:38;17.79;118.99
7942;HTU21D;4016;50.758;7.150;2022-08-19T06:13:39;17.91;118.99
7942;HTU21D;4016;50.758;7.150;2022-08-19T06:18:39;17.99;118.99
7942;HTU21D;4016;50.758;7.150;2022-08-19T06:23:40;18.12;118.99
7942;HTU21D;4016;50.758;7.150;2022-08-19T06:28:40;18.33;118.99
7942;HTU21D;4016;50.758;7.150;2022-08-19T06:33:47;18.61;118.19
7942;HTU21D;4016;50.758;7.150;2022-08-19T06:38:48;18.79;117.44
7942;HTU21D;4016;50.758;7.150;2022-08-19T06:43:48;19.06;115.57
7942;HTU21D;4016;50.758;7.150;2022-08-19T06:48:49;19.38;114.00
7942;HTU21D;4016;50.758;7.150;2022-08-19T06:53:51;19.51;113.79
7942;HTU21D;4016;50.758;7.150;2022-08-19T06:58:52;19.83;111.41
7942;HTU21D;4016;50.758;7.150;2022-08-19T07:03:52;20.06;110.49
7942;HTU21D;4016;50.758;7.150;2022-08-19T07:08:53;20.45;107.13
7942;HTU21D;4016;50.758;7.150;2022-08-19T07:13:53;20.48;107.53
7942;HTU21D;4016;50.758;7.150;2022-08-19T07:18:55;20.65;106.86
7942;HTU21D;4016;50.758;7.150;2022-08-19T07:23:58;20.96;105.31
7942;HTU21D;4016;50.758;7.150;2022-08-19T07:28:59;21.29;103.89
7942;HTU21D;4016;50.758;7.150;2022-08-19T07:34:05;21.65;102.63
7942;HTU21D;4016;50.758;7.150;2022-08-19T07:39:16;22.36;97.48
7942;HTU21D;4016;50.758;7.150;2022-08-19T07:44:18;22.52;96.89
7942;HTU21D;4016;50.758;7.150;2022-08-19T07:49:20;22.76;95.49
7942;HTU21D;4016;50.758;7.150;2022-08-19T07:54:22;22.82;94.80
7942;HTU21D;4016;50.758;7.150;2022-08-19T07:59:23;23.23;93.24
7942;HTU21D;4016;50.758;7.150;2022-08-19T08:04:24;23.58;90.42
7942;HTU21D;4016;50.758;7.150;2022-08-19T08:09:43;23.90;89.34
7942;HTU21D;4016;50.758;7.150;2022-08-19T08:14:49;24.28;86.42
7942;HTU21D;4016;50.758;7.150;2022-08-19T08:19:51;24.65;84.49
7942;HTU21D;4016;50.758;7.150;2022-08-19T08:24:51;24.97;81.62
7942;HTU21D;4016;50.758;7.150;2022-08-19T08:29:51;25.14;81.05
7942;HTU21D;4016;50.758;7.150;2022-08-19T08:34:52;25.28;79.62
7942;HTU21D;4016;50.758;7.150;2022-08-19T08:39:52;25.53;79.34
7942;HTU21D;4016;50.758;7.150;2022-08-19T08:45:10;25.30;79.17
7942;HTU21D;4016;50.758;7.150;2022-08-19T08:50:20;25.48;78.86
7942;HTU21D;4016;50.758;7.150;2022-08-19T08:55:26;25.27;78.11
7942;HTU21D;4016;50.758;7.150;2022-08-19T09:00:33;25.29;79.96
7942;HTU21D;4016;50.758;7.150;2022-08-19T09:11:04;25.76;78.24
7942;HTU21D;4016;50.758;7.150;2022-08-19T09:16:12;25.75;76.92
7942;HTU21D;4016;50.758;7.150;2022-08-19T09:21:15;26.21;76.00
7942;HTU21D;4016;50.758;7.150;2022-08-19T09:26:20;26.61;73.96
7942;HTU21D;4016;50.758;7.150;2022-08-19T09:31:24;26.76;72.09
7942;HTU21D;4016;50.758;7.150;2022-08-19T09:36:27;26.80;72.00
7942;HTU21D;4016;50.758;7.150;2022-08-19T09:41:28;27.09;70.98
7942;HTU21D;4016;50.758;7.150;2022-08-19T09:46:29;26.63;71.77
7942;HTU21D;4016;50.758;7.150;2022-08-19T09:51:30;27.08;69.86
7942;HTU21D;4016;50.758;7.150;2022-08-19T09:56:32;27.11;69.25
7942;HTU21D;4016;50.758;7.150;2022-08-19T10:01:32;27.26;68.07
7942;HTU21D;4016;50.758;7.150;2022-08-19T10:06:33;27.29;66.62
7942;HTU21D;4016;50.758;7.150;2022-08-19T10:11:34;26.94;65.58
7942;HTU21D;4016;50.758;7.150;2022-08-19T10:16:36;26.56;68.63
7942;HTU21D;4016;50.758;7.150;2022-08-19T10:21:37;26.64;65.43
7942;HTU21D;4016;50.758;7.150;2022-08-19T10:26:40;26.92;64.66
7942;HTU21D;4016;50.758;7.150;2022-08-19T10:31:45;27.17;63.44
7942;HTU21D;4016;50.758;7.150;2022-08-19T10:36:47;27.63;62.28
7942;HTU21D;4016;50.758;7.150;2022-08-19T10:41:48;28.16;58.58
7942;HTU21D;4016;50.758;7.150;2022-08-19T10:46:48;27.63;59.68
7942;HTU21D;4016;50.758;7.150;2022-08-19T10:51:49;27.87;57.01
7942;HTU21D;4016;50.758;7.150;2022-08-19T10:57:08;27.75;56.13
7942;HTU21D;4016;50.758;7.150;2022-08-19T11:02:10;27.49;56.55
7942;HTU21D;4016;50.758;7.150;2022-08-19T11:07:12;27.95;54.26
7942;HTU21D;4016;50.758;7.150;2022-08-19T11:12:12;28.29;52.36
7942;HTU21D;4016;50.758;7.150;2022-08-19T11:17:12;28.17;53.37
7942;HTU21D;4016;50.758;7.150;2022-08-19T11:22:13;28.16;53.18
7942;HTU21D;4016;50.758;7.150;2022-08-19T11:27:14;28.70;50.82
7942;HTU21D;4016;50.758;7.150;2022-08-19T11:32:14;28.60;50.35
7942;HTU21D;4016;50.758;7.150;2022-08-19T11:37:15;28.67;47.85
7942;HTU21D;4016;50.758;7.150;2022-08-19T11:42:17;28.97;46.23
7942;HTU21D;4016;50.758;7.150;2022-08-19T11:47:36;29.16;46.41
7942;HTU21D;4016;50.758;7.150;2022-08-19T11:52:37;29.79;45.90
7942;HTU21D;4016;50.758;7.150;2022-08-19T11:57:38;30.08;44.19
7942;HTU21D;4016;50.758;7.150;2022-08-19T12:02:39;29.70;45.64
7942;HTU21D;4016;50.758;7.150;2022-08-19T12:07:40;29.78;44.99
7942;HTU21D;4016;50.758;7.150;2022-08-19T12:12:41;29.43;44.85
7942;HTU21D;4016;50.758;7.150;2022-08-19T12:17:42;29.19;45.23
7942;HTU21D;4016;50.758;7.150;2022-08-19T12:22:43;29.23;45.25
7942;HTU21D;4016;50.758;7.150;2022-08-19T12:27:43;29.90;44.03
7942;HTU21D;4016;50.758;7.150;2022-08-19T12:32:45;29.98;41.73
7942;HTU21D;4016;50.758;7.150;2022-08-19T12:37:46;29.85;42.48
7942;HTU21D;4016;50.758;7.150;2022-08-19T12:42:47;29.33;43.70
7942;HTU21D;4016;50.758;7.150;2022-08-19T12:47:50;29.37;43.55
7942;HTU21D;4016;50.758;7.150;2022-08-19T12:52:51;29.78;42.03
7942;HTU21D;4016;50.758;7.150;2022-08-19T12:57:52;30.30;39.49
7942;HTU21D;4016;50.758;7.150;2022-08-19T13:02:52;30.42;39.83
7942;HTU21D;4016;50.758;7.150;2022-08-19T13:07:54;30.47;39.57
7942;HTU21D;4016;50.758;7.150;2022-08-19T13:12:56;30.71;38.58
7942;HTU21D;4016;50.758;7.150;2022-08-19T13:17:59;30.94;37.22
7942;HTU21D;4016;50.758;7.150;2022-08-19T13:22:59;31.22;36.53
7942;HTU21D;4016;50.758;7.150;2022-08-19T13:28:00;31.10;35.42
7942;HTU21D;4016;50.758;7.150;2022-08-19T13:33:00;30.92;36.28
7942;HTU21D;4016;50.758;7.150;2022-08-19T13:38:19;30.82;35.96
7942;HTU21D;4016;50.758;7.150;2022-08-19T13:43:23;31.06;35.25
7942;HTU21D;4016;50.758;7.150;2022-08-19T13:48:27;31.35;35.79
7942;HTU21D;4016;50.758;7.150;2022-08-19T13:53:27;30.87;36.90
7942;HTU21D;4016;50.758;7.150;2022-08-19T13:58:28;30.95;37.21
7942;HTU21D;4016;50.758;7.150;2022-08-19T14:03:29;31.31;34.27
7942;HTU21D;4016;50.758;7.150;2022-08-19T14:08:30;31.60;34.43
7942;HTU21D;4016;50.758;7.150;2022-08-19T14:13:32;31.86;33.06
7942;HTU21D;4016;50.758;7.150;2022-08-19T14:18:34;31.56;32.51
7942;HTU21D;4016;50.758;7.150;2022-08-19T14:23:34;31.59;33.47
7942;HTU21D;4016;50.758;7.150;2022-08-19T14:28:36;31.38;32.83
7942;HTU21D;4016;50.758;7.150;2022-08-19T14:33:36;31.39;33.31
7942;HTU21D;4016;50.758;7.150;2022-08-19T14:38:37;31.28;34.14
7942;HTU21D;4016;50.758;7.150;2022-08-19T14:43:38;31.68;33.23
7942;HTU21D;4016;50.758;7.150;2022-08-19T14:48:38;31.58;32.45
7942;HTU21D;4016;50.758;7.150;2022-08-19T14:53:39;31.99;31.44
7942;HTU21D;4016;50.758;7.150;2022-08-19T14:58:41;31.35;33.28
7942;HTU21D;4016;50.758;7.150;2022-08-19T15:03:42;31.22;33.58
7942;HTU21D;4016;50.758;7.150;2022-08-19T15:08:42;31.35;32.99
7942;HTU21D;4016;50.758;7.150;2022-08-19T15:13:44;31.45;32.00
7942;HTU21D;4016;50.758;7.150;2022-08-19T15:18:49;31.27;33.02
7942;HTU21D;4016;50.758;7.150;2022-08-19T15:23:51;30.89;34.34
7942;HTU21D;4016;50.758;7.150;2022-08-19T15:28:51;30.54;34.37
7942;HTU21D;4016;50.758;7.150;2022-08-19T15:33:53;30.49;35.35
7942;HTU21D;4016;50.758;7.150;2022-08-19T15:38:57;30.24;35.52
7942;HTU21D;4016;50.758;7.150;2022-08-19T15:44:10;30.13;35.81
7942;HTU21D;4016;50.758;7.150;2022-08-19T15:49:12;29.95;35.84
7942;HTU21D;4016;50.758;7.150;2022-08-19T15:54:15;29.50;36.31
7942;HTU21D;4016;50.758;7.150;2022-08-19T15:59:16;29.70;35.72
7942;HTU21D;4016;50.758;7.150;2022-08-19T16:04:35;29.93;35.32
7942;HTU21D;4016;50.758;7.150;2022-08-19T16:09:54;30.10;34.62
7942;HTU21D;4016;50.758;7.150;2022-08-19T16:14:55;29.88;35.67
7942;HTU21D;4016;50.758;7.150;2022-08-19T16:19:56;29.66;36.43
7942;HTU21D;4016;50.758;7.150;2022-08-19T16:24:57;29.70;36.70
7942;HTU21D;4016;50.758;7.150;2022-08-19T16:29:57;29.50;37.66
7942;HTU21D;4016;50.758;7.150;2022-08-19T16:34:58;29.48;38.72
7942;HTU21D;4016;50.758;7.150;2022-08-19T16:39:59;29.58;39.36
7942;HTU21D;4016;50.758;7.150;2022-08-19T16:44:59;29.58;40.23
7942;HTU21D;4016;50.758;7.150;2022-08-19T16:50:00;29.41;40.85
7942;HTU21D;4016;50.758;7.150;2022-08-19T16:55:00;29.01;42.03
7942;HTU21D;4016;50.758;7.150;2022-08-19T17:00:01;28.92;42.42
7942;HTU21D;4016;50.758;7.150;2022-08-19T17:05:08;29.49;41.78
7942;HTU21D;4016;50.758;7.150;2022-08-19T17:10:09;30.23;40.03
7942;HTU21D;4016;50.758;7.150;2022-08-19T17:15:10;30.48;39.06
7942;HTU21D;4016;50.758;7.150;2022-08-19T17:20:10;30.03;40.70
7942;HTU21D;4016;50.758;7.150;2022-08-19T17:25:11;29.47;42.06
7942;HTU21D;4016;50.758;7.150;2022-08-19T17:30:12;28.73;44.70
7942;HTU21D;4016;50.758;7.150;2022-08-19T17:35:13;28.14;47.07
7942;HTU21D;4016;50.758;7.150;2022-08-19T17:40:18;27.78;49.11
7942;HTU21D;4016;50.758;7.150;2022-08-19T17:45:19;27.49;50.95
7942;HTU21D;4016;50.758;7.150;2022-08-19T17:50:20;27.04;53.34
7942;HTU21D;4016;50.758;7.150;2022-08-19T17:55:21;26.70;55.49
7942;HTU21D;4016;50.758;7.150;2022-08-19T18:00:23;26.52;56.64
7942;HTU21D;4016;50.758;7.150;2022-08-19T18:05:26;26.32;57.93
7942;HTU21D;4016;50.758;7.150;2022-08-19T18:10:30;26.16;59.30
7942;HTU21D;4016;50.758;7.150;2022-08-19T18:15:31;25.91;60.77
7942;HTU21D;4016;50.758;7.150;2022-08-19T18:20:31;25.83;61.15
7942;HTU21D;4016;50.758;7.150;2022-08-19T18:25:31;25.72;62.58
7942;HTU21D;4016;50.758;7.150;2022-08-19T18:30:32;25.49;63.02
7942;HTU21D;4016;50.758;7.150;2022-08-19T18:35:33;25.25;64.72
7942;HTU21D;4016;50.758;7.150;2022-08-19T18:40:37;25.15;65.53
7942;HTU21D;4016;50.758;7.150;2022-08-19T18:45:56;24.89;67.18
7942;HTU21D;4016;50.758;7.150;2022-08-19T18:51:16;24.76;68.36
7942;HTU21D;4016;50.758;7.150;2022-08-19T18:56:18;24.65;69.61
7942;HTU21D;4016;50.758;7.150;2022-08-19T19:01:32;24.50;70.75
7942;HTU21D;4016;50.758;7.150;2022-08-19T19:06:34;24.35;72.36
7942;HTU21D;4016;50.758;7.150;2022-08-19T19:11:41;24.19;74.41
7942;HTU21D;4016;50.758;7.150;2022-08-19T19:16:44;24.10;74.91
7942;HTU21D;4016;50.758;7.150;2022-08-19T19:21:47;23.99;76.10
7942;HTU21D;4016;50.758;7.150;2022-08-19T19:26:50;23.90;77.12
7942;HTU21D;4016;50.758;7.150;2022-08-19T19:31:51;23.72;78.43
7942;HTU21D;4016;50.758;7.150;2022-08-19T19:36:52;23.60;79.73
7942;HTU21D;4016;50.758;7.150;2022-08-19T19:41:52;23.51;81.26
7942;HTU21D;4016;50.758;7.150;2022-08-19T19:46:53;23.40;81.74
7942;HTU21D;4016;50.758;7.150;2022-08-19T19:51:54;23.30;81.91
7942;HTU21D;4016;50.758;7.150;2022-08-19T19:56:55;23.20;83.45
7942;HTU21D;4016;50.758;7.150;2022-08-19T20:01:55;23.23;85.00
7942;HTU21D;4016;50.758;7.150;2022-08-19T20:06:56;23.17;0.00
7942;HTU21D;4016;50.758;7.150;2022-08-19T20:11:56;23.15;84.97
7942;HTU21D;4016;50.758;7.150;2022-08-19T20:16:58;23.26;85.06
7942;HTU21D;4016;50.758;7.150;2022-08-19T20:21:59;23.18;85.07
7942;HTU21D;4016;50.758;7.150;2022-08-19T20:27:01;23.12;85.38
7942;HTU21D;4016;50.758;7.150;2022-08-19T20:32:02;23.10;85.76
7942;HTU21D;4016;50.758;7.150;2022-08-19T20:37:03;23.35;86.05
7942;HTU21D;4016;50.758;7.150;2022-08-19T20:42:03;23.39;86.89
7942;HTU21D;4016;50.758;7.150;2022-08-19T20:47:04;23.23;88.80
7942;HTU21D;4016;50.758;7.150;2022-08-19T20:52:05;23.16;90.05
7942;HTU21D;4016;50.758;7.150;2022-08-19T20:57:05;23.23;91.33
7942;HTU21D;4016;50.758;7.150;2022-08-19T21:02:06;23.14;92.51
7942;HTU21D;4016;50.758;7.150;2022-08-19T21:07:07;23.02;93.33
7942;HTU21D;4016;50.758;7.150;2022-08-19T21:12:10;23.03;94.62
7942;HTU21D;4016;50.758;7.150;2022-08-19T21:17:11;23.01;95.04
7942;HTU21D;4016;50.758;7.150;2022-08-19T21:22:12;22.76;96.33
7942;HTU21D;4016;50.758;7.150;2022-08-19T21:27:12;22.76;96.68
7942;HTU21D;4016;50.758;7.150;2022-08-19T21:32:13;22.71;97.39
7942;HTU21D;4016;50.758;7.150;2022-08-19T21:37:13;22.61;98.22
7942;HTU21D;4016;50.758;7.150;2022-08-19T21:42:14;22.60;98.03
7942;HTU21D;4016;50.758;7.150;2022-08-19T21:47:15;22.64;98.60
7942;HTU21D;4016;50.758;7.150;2022-08-19T21:52:22;22.60;98.56
7942;HTU21D;4016;50.758;7.150;2022-08-19T21:57:24;22.58;98.90
7942;HTU21D;4016;50.758;7.150;2022-08-19T22:02:25;22.55;98.85
7942;HTU21D;4016;50.758;7.150;2022-08-19T22:07:27;22.41;100.68
7942;HTU21D;4016;50.758;7.150;2022-08-19T22:12:32;22.36;101.39
7942;HTU21D;4016;50.758;7.150;2022-08-19T22:17:33;22.40;100.48
7942;HTU21D;4016;50.758;7.150;2022-08-19T22:22:34;22.55;100.27
7942;HTU21D;4016;50.758;7.150;2022-08-19T22:27:35;22.34;100.97
7942;HTU21D;4016;50.758;7.150;2022-08-19T22:32:36;22.35;101.08
7942;HTU21D;4016;50.758;7.150;2022-08-19T22:37:36;22.23;101.69
7942;HTU21D;4016;50.758;7.150;2022-08-19T22:42:38;22.35;101.35
7942;HTU21D;4016;50.758;7.150;2022-08-19T22:47:38;22.24;101.71
7942;HTU21D;4016;50.758;7.150;2022-08-19T22:52:39;22.34;101.44
7942;HTU21D;4016;50.758;7.150;2022-08-19T22:57:41;22.34;101.79
7942;HTU21D;4016;50.758;7.150;2022-08-19T23:02:42;22.14;102.93
7942;HTU21D;4016;50.758;7.150;2022-08-19T23:07:43;22.08;103.34
7942;HTU21D;4016;50.758;7.150;2022-08-19T23:12:46;21.97;103.64
7942;HTU21D;4016;50.758;7.150;2022-08-19T23:17:47;22.07;103.91
7942;HTU21D;4016;50.758;7.150;2022-08-19T23:22:47;22.19;104.69
7942;HTU21D;4016;50.758;7.150;2022-08-19T23:27:52;22.02;107.97
7942;HTU21D;4016;50.758;7.150;2022-08-19T23:33:15;21.85;109.94
7942;HTU21D;4016;50.758;7.150;2022-08-19T23:38:21;21.67;111.47
7942;HTU21D;4016;50.758;7.150;2022-08-19T23:43:23;21.61;112.14
7942;HTU21D;4016;50.758;7.150;2022-08-19T23:48:24;21.60;111.94
7942;HTU21D;4016;50.758;7.150;2022-08-19T23:53:26;21.42;113.34
7942;HTU21D;4016;50.758;7.150;2022-08-19T23:58:27;21.38;113.40
